createdAt,value
2022-12-28T00:00:49.710Z,99775.60
2022-12-28T00:03:38.994Z,99772.60
2022-12-28T00:06:17.119Z,99778.00
2022-12-28T00:08:55.413Z,99778.20
2022-12-28T00:11:33.110Z,99769.80
2022-12-28T00:14:10.186Z,99764.40
2022-12-28T00:16:47.817Z,99761.00
2022-12-28T00:19:24.684Z,99764.00
2022-12-28T00:22:01.031Z,99759.60
2022-12-28T00:24:37.497Z,99764.00
2022-12-28T00:27:15.090Z,99761.20
2022-12-28T00:29:51.456Z,99758.80
2022-12-28T00:32:28.649Z,99755.40
2022-12-28T00:35:05.860Z,99758.80
2022-12-28T00:37:43.321Z,99765.60
2022-12-28T00:40:23.941Z,99760.20
2022-12-28T00:43:00.558Z,99754.60
2022-12-28T00:45:36.838Z,99762.80
2022-12-28T00:48:13.700Z,99766.40
2022-12-28T00:50:50.657Z,99764.00
2022-12-28T00:53:27.143Z,99766.00
2022-12-28T00:56:14.123Z,99771.80
2022-12-28T00:58:51.137Z,99771.20
2022-12-28T01:01:30.186Z,99772.20
2022-12-28T01:04:07.887Z,99769.80
2022-12-28T01:06:44.524Z,99767.00
2022-12-28T01:09:20.845Z,99767.40
2022-12-28T01:11:57.355Z,99771.60
2022-12-28T01:14:34.589Z,99770.40
2022-12-28T01:17:10.810Z,99771.40
2022-12-28T01:19:53.617Z,99773.60
2022-12-28T01:22:30.872Z,99771.80
2022-12-28T01:25:08.520Z,99773.80
2022-12-28T01:27:47.322Z,99772.40
2022-12-28T01:30:24.472Z,99771.20
2022-12-28T01:33:03.436Z,99772.80
2022-12-28T01:35:41.035Z,99771.00
2022-12-28T01:38:17.317Z,99771.20
2022-12-28T01:40:53.659Z,99764.60
2022-12-28T01:43:45.743Z,99762.80
2022-12-28T01:46:26.065Z,99757.00
2022-12-28T01:49:11.234Z,99758.80
2022-12-28T01:51:57.420Z,99755.40
2022-12-28T01:54:43.899Z,99755.80
2022-12-28T01:57:24.781Z,99752.20
2022-12-28T02:00:10.947Z,99748.00
2022-12-28T02:03:00.587Z,99745.60
2022-12-28T02:05:44.116Z,99742.40
2022-12-28T02:08:29.853Z,99744.80
2022-12-28T02:11:12.664Z,99742.60
2022-12-28T02:13:53.362Z,99739.40
2022-12-28T02:16:30.527Z,99733.80
2022-12-28T02:19:09.756Z,99731.20
2022-12-28T02:22:12.140Z,99731.00
2022-12-28T02:25:28.764Z,99729.00
2022-12-28T02:28:41.079Z,99728.20
2022-12-28T02:31:26.556Z,99730.00
2022-12-28T02:34:19.041Z,99731.40
2022-12-28T02:37:04.769Z,99740.20
2022-12-28T02:39:51.029Z,99738.40
2022-12-28T02:42:30.397Z,99731.60
2022-12-28T02:45:27.199Z,99727.20
2022-12-28T02:48:22.215Z,99723.60
2022-12-28T02:51:21.887Z,99722.20
2022-12-28T02:54:51.573Z,99728.60
2022-12-28T02:57:55.012Z,99713.00
2022-12-28T03:00:47.406Z,99713.20
2022-12-28T03:03:40.271Z,99706.80
2022-12-28T03:06:49.142Z,99699.00
2022-12-28T03:09:38.358Z,99684.80
2022-12-28T03:12:26.690Z,99687.40
2022-12-28T03:15:11.517Z,99680.00
2022-12-28T03:18:06.453Z,99678.40
2022-12-28T03:21:00.997Z,99674.80
2022-12-28T03:23:59.552Z,99674.20
2022-12-28T03:27:00.246Z,99672.00
2022-12-28T03:30:03.851Z,99664.80
2022-12-28T03:32:40.938Z,99665.00
2022-12-28T03:35:19.790Z,99670.20
2022-12-28T03:38:04.071Z,99673.00
2022-12-28T03:40:49.118Z,99664.00
2022-12-28T03:43:42.282Z,99671.40
2022-12-28T03:46:30.363Z,99668.40
2022-12-28T03:49:07.773Z,99664.00
2022-12-28T03:51:47.613Z,99670.40
2022-12-28T03:54:24.458Z,99671.00
2022-12-28T03:57:01.228Z,99670.20
2022-12-28T03:59:40.717Z,99678.40
2022-12-28T04:02:17.299Z,99679.80
2022-12-28T04:04:53.727Z,99684.00
2022-12-28T04:07:30.923Z,99679.00
2022-12-28T04:10:10.699Z,99671.40
2022-12-28T04:12:46.977Z,99669.60
2022-12-28T04:15:35.583Z,99665.20
2022-12-28T04:18:12.118Z,99664.00
2022-12-28T04:20:48.509Z,99669.20
2022-12-28T04:23:25.564Z,99660.80
2022-12-28T04:26:12.581Z,99658.80
2022-12-28T04:28:49.555Z,99653.60
2022-12-28T04:31:44.827Z,99651.40
2022-12-28T04:34:23.465Z,99652.80
2022-12-28T04:37:19.524Z,99649.20
2022-12-28T04:39:57.407Z,99647.60
2022-12-28T04:42:34.769Z,99641.60
2022-12-28T04:45:16.948Z,99637.20
2022-12-28T04:48:01.417Z,99640.00
2022-12-28T04:50:39.141Z,99641.00
2022-12-28T04:53:15.406Z,99640.40
2022-12-28T04:55:52.615Z,99644.00
2022-12-28T04:58:28.928Z,99641.60
2022-12-28T05:01:12.674Z,99636.00
2022-12-28T05:03:55.042Z,99625.00
2022-12-28T05:06:32.776Z,99616.80
2022-12-28T05:09:09.130Z,99612.20
2022-12-28T05:11:45.498Z,99615.60
2022-12-28T05:14:21.724Z,99613.60
2022-12-28T05:16:57.965Z,99615.80
2022-12-28T05:19:34.234Z,99615.00
2022-12-28T05:22:12.137Z,99608.20
2022-12-28T05:24:48.447Z,99606.60
2022-12-28T05:27:24.702Z,99605.20
2022-12-28T05:30:00.946Z,99609.60
2022-12-28T05:32:37.251Z,99617.20
2022-12-28T05:35:15.265Z,99617.20
2022-12-28T05:37:51.536Z,99620.80
2022-12-28T05:40:27.884Z,99624.20
2022-12-28T05:43:04.587Z,99620.80
2022-12-28T05:45:40.900Z,99615.20
2022-12-28T05:48:17.124Z,99622.60
2022-12-28T05:50:56.872Z,99623.80
2022-12-28T05:53:35.951Z,99616.20
2022-12-28T05:56:16.503Z,99615.60
2022-12-28T05:59:01.437Z,99611.00
2022-12-28T06:01:41.228Z,99609.80
2022-12-28T06:04:22.713Z,99604.20
2022-12-28T06:06:59.064Z,99601.20
2022-12-28T06:09:35.295Z,99595.80
2022-12-28T06:12:12.307Z,99594.40
2022-12-28T06:14:48.532Z,99601.60
2022-12-28T06:17:24.937Z,99597.00
2022-12-28T06:20:01.303Z,99592.20
2022-12-28T06:22:37.540Z,99591.20
2022-12-28T06:25:15.448Z,99581.00
2022-12-28T06:27:51.840Z,99581.60
2022-12-28T06:30:28.203Z,99582.20
2022-12-28T06:33:04.693Z,99578.60
2022-12-28T06:35:44.726Z,99579.00
2022-12-28T06:38:20.977Z,99575.80
2022-12-28T06:41:14.253Z,99576.20
2022-12-28T06:43:52.799Z,99571.20
2022-12-28T06:46:31.746Z,99566.60
2022-12-28T06:49:08.465Z,99566.00
2022-12-28T06:51:44.733Z,99567.40
2022-12-28T06:54:21.250Z,99564.20
2022-12-28T06:56:57.947Z,99562.40
2022-12-28T06:59:34.240Z,99561.80
2022-12-28T07:02:11.812Z,99558.80
2022-12-28T07:04:48.289Z,99552.20
2022-12-28T07:07:24.485Z,99552.60
2022-12-28T07:10:01.022Z,99550.00
2022-12-28T07:12:37.389Z,99547.80
2022-12-28T07:15:15.496Z,99548.00
2022-12-28T07:17:51.757Z,99540.80
2022-12-28T07:20:28.267Z,99538.00
2022-12-28T07:23:04.653Z,99529.60
2022-12-28T07:25:41.573Z,99525.80
2022-12-28T07:28:17.990Z,99525.40
2022-12-28T07:30:54.652Z,99520.20
2022-12-28T07:33:30.991Z,99520.40
2022-12-28T07:36:09.392Z,99522.40
2022-12-28T07:38:46.654Z,99519.00
2022-12-28T07:41:27.966Z,99518.60
2022-12-28T07:44:05.091Z,99519.20
2022-12-28T07:46:42.354Z,99518.80
2022-12-28T07:49:18.568Z,99513.20
2022-12-28T07:51:55.184Z,99509.00
2022-12-28T07:54:31.733Z,99508.20
2022-12-28T07:57:08.702Z,99507.20
2022-12-28T07:59:44.972Z,99511.60
2022-12-28T08:02:21.323Z,99507.20
2022-12-28T08:04:57.713Z,99508.40
2022-12-28T08:07:33.965Z,99503.80
2022-12-28T08:10:12.200Z,99499.40
2022-12-28T08:12:48.412Z,99502.00
2022-12-28T08:15:24.657Z,99502.60
2022-12-28T08:18:01.065Z,99500.00
2022-12-28T08:20:39.178Z,99497.00
2022-12-28T08:23:18.301Z,99496.80
2022-12-28T08:25:54.663Z,99497.20
2022-12-28T08:28:30.991Z,99501.40
2022-12-28T08:31:16.232Z,99495.00
2022-12-28T08:33:54.492Z,99494.20
2022-12-28T08:36:31.735Z,99499.80
2022-12-28T08:39:08.717Z,99495.60
2022-12-28T08:41:45.179Z,99499.00
2022-12-28T08:44:21.679Z,99499.60
2022-12-28T08:46:58.679Z,99498.40
2022-12-28T08:49:34.890Z,99500.20
2022-12-28T08:52:11.353Z,99503.60
2022-12-28T08:54:47.631Z,99508.80
2022-12-28T08:57:24.025Z,99510.80
2022-12-28T09:00:00.473Z,99511.20
2022-12-28T09:02:37.086Z,99514.60
2022-12-28T09:05:15.082Z,99511.60
2022-12-28T09:07:56.250Z,99509.60
2022-12-28T09:10:36.014Z,99510.40
2022-12-28T09:13:12.237Z,99504.60
2022-12-28T09:15:59.308Z,99504.60
2022-12-28T09:18:36.696Z,99500.20
2022-12-28T09:21:18.780Z,99493.60
2022-12-28T09:23:55.765Z,99499.40
2022-12-28T09:26:35.617Z,99494.40
2022-12-28T09:29:16.201Z,99494.40
2022-12-28T09:31:52.656Z,99490.00
2022-12-28T09:34:36.610Z,99489.40
2022-12-28T09:37:14.653Z,99488.80
2022-12-28T09:39:51.016Z,99492.60
2022-12-28T09:42:31.957Z,99489.00
2022-12-28T09:45:13.265Z,99492.80
2022-12-28T09:47:56.180Z,99489.80
2022-12-28T09:50:36.107Z,99481.00
2022-12-28T09:53:34.550Z,99483.60
2022-12-28T09:56:29.417Z,99477.60
2022-12-28T09:59:07.948Z,99476.60
2022-12-28T10:01:46.228Z,99468.20
2022-12-28T10:04:22.923Z,99468.40
2022-12-28T10:07:02.036Z,99461.80
2022-12-28T10:09:39.729Z,99467.80
2022-12-28T10:12:22.345Z,99462.80
2022-12-28T10:15:00.463Z,99457.60
2022-12-28T10:17:37.527Z,99447.80
2022-12-28T10:20:23.833Z,99442.20
2022-12-28T10:23:03.637Z,99442.20
2022-12-28T10:25:40.117Z,99443.60
2022-12-28T10:28:21.496Z,99439.60
2022-12-28T10:31:11.749Z,99441.60
2022-12-28T10:33:55.818Z,99438.60
2022-12-28T10:36:36.647Z,99434.40
2022-12-28T10:39:21.623Z,99428.00
2022-12-28T10:42:01.203Z,99428.20
2022-12-28T10:44:41.703Z,99431.80
2022-12-28T10:47:36.153Z,99435.40
2022-12-28T10:50:47.901Z,99427.80
2022-12-28T10:53:33.906Z,99419.20
2022-12-28T10:56:29.774Z,99415.20
2022-12-28T10:59:30.256Z,99411.40
2022-12-28T11:02:33.822Z,99411.00
2022-12-28T11:05:23.875Z,99408.00
2022-12-28T11:08:13.202Z,99399.80
2022-12-28T11:10:57.933Z,99394.20
2022-12-28T11:13:35.109Z,99396.00
2022-12-28T11:16:16.536Z,99383.20
2022-12-28T11:18:54.072Z,99378.00
2022-12-28T11:21:30.546Z,99376.60
2022-12-28T11:24:08.513Z,99374.80
2022-12-28T11:26:50.652Z,99365.40
2022-12-28T11:29:27.219Z,99367.00
2022-12-28T11:32:12.789Z,99365.00
2022-12-28T11:34:50.198Z,99355.80
2022-12-28T11:37:26.619Z,99350.80
2022-12-28T11:40:02.993Z,99347.40
2022-12-28T11:43:00.988Z,99339.60
2022-12-28T11:45:59.446Z,99333.40
2022-12-28T11:49:03.677Z,99329.40
2022-12-28T11:51:40.930Z,99319.80
2022-12-28T11:54:54.109Z,99319.80
2022-12-28T11:57:45.397Z,99316.60
2022-12-28T12:00:52.789Z,99310.60
2022-12-28T12:04:17.074Z,99302.80
2022-12-28T12:07:49.333Z,99311.00
2022-12-28T12:10:43.412Z,99303.60
2022-12-28T12:13:51.838Z,99296.80
2022-12-28T12:16:48.576Z,99293.60
2022-12-28T12:19:33.087Z,99287.20
2022-12-28T12:22:18.945Z,99287.60
2022-12-28T12:25:04.421Z,99284.40
2022-12-28T12:27:49.892Z,99278.60
2022-12-28T12:30:28.062Z,99268.80
2022-12-28T12:33:13.818Z,99262.80
2022-12-28T12:36:11.151Z,99260.20
2022-12-28T12:39:23.771Z,99252.80
2022-12-28T12:42:21.001Z,99248.20
2022-12-28T12:45:14.088Z,99246.20
2022-12-28T12:48:44.436Z,99237.40
2022-12-28T12:51:39.301Z,99235.80
2022-12-28T12:54:38.222Z,99231.00
2022-12-28T12:57:25.800Z,99227.80
2022-12-28T13:00:17.596Z,99223.80
2022-12-28T13:03:29.577Z,99222.00
2022-12-28T13:06:09.588Z,99221.00
2022-12-28T13:08:53.524Z,99219.60
2022-12-28T13:11:32.112Z,99215.60
2022-12-28T13:14:15.302Z,99208.40
2022-12-28T13:16:57.279Z,99202.20
2022-12-28T13:19:34.488Z,99201.40
2022-12-28T13:22:29.394Z,99205.00
2022-12-28T13:25:05.915Z,99204.60
2022-12-28T13:27:43.963Z,99203.00
2022-12-28T13:30:25.787Z,99204.80
2022-12-28T13:33:04.537Z,99198.20
2022-12-28T13:35:41.011Z,99202.60
2022-12-28T13:38:20.490Z,99194.80
2022-12-28T13:40:58.420Z,99201.20
2022-12-28T13:44:17.295Z,99197.60
2022-12-28T13:47:01.745Z,99188.60
2022-12-28T13:49:46.921Z,99175.60
2022-12-28T13:52:29.861Z,99170.20
2022-12-28T13:55:13.529Z,99173.00
2022-12-28T13:57:59.887Z,99163.40
2022-12-28T14:00:40.381Z,99159.40
2022-12-28T14:03:18.716Z,99158.80
2022-12-28T14:06:02.192Z,99157.40
2022-12-28T14:08:42.446Z,99149.40
2022-12-28T14:11:19.923Z,99141.40
2022-12-28T14:13:57.553Z,99138.20
2022-12-28T14:16:34.620Z,99131.20
2022-12-28T14:19:12.957Z,99137.60
2022-12-28T14:21:52.099Z,99135.00
2022-12-28T14:24:28.694Z,99134.40
2022-12-28T14:27:05.278Z,99135.80
2022-12-28T14:29:42.395Z,99136.60
2022-12-28T14:32:21.948Z,99135.60
2022-12-28T14:35:03.787Z,99141.00
2022-12-28T14:37:41.816Z,99146.20
2022-12-28T14:40:32.619Z,99148.00
2022-12-28T14:43:24.111Z,99150.80
2022-12-28T14:46:14.841Z,99144.60
2022-12-28T14:48:53.600Z,99145.60
2022-12-28T14:51:37.547Z,99150.20
2022-12-28T14:54:26.211Z,99149.00
2022-12-28T14:57:17.605Z,99150.40
2022-12-28T15:00:02.288Z,99143.80
2022-12-28T15:02:45.470Z,99142.40
2022-12-28T15:05:46.602Z,99137.20
2022-12-28T15:08:24.079Z,99142.20
2022-12-28T15:13:41.563Z,99138.60
2022-12-28T15:16:19.392Z,99139.60
2022-12-28T15:18:56.741Z,99135.20
2022-12-28T15:21:33.518Z,99140.40
2022-12-28T15:24:11.182Z,99138.60
2022-12-28T15:26:47.628Z,99131.80
2022-12-28T15:29:39.996Z,99128.40
2022-12-28T15:32:20.902Z,99127.40
2022-12-28T15:34:57.374Z,99130.60
2022-12-28T15:37:33.817Z,99130.60
2022-12-28T15:40:13.693Z,99131.80
2022-12-28T15:42:51.460Z,99130.00
2022-12-28T15:45:27.873Z,99130.80
2022-12-28T15:48:05.217Z,99130.80
2022-12-28T15:50:41.603Z,99130.00
2022-12-28T15:53:18.881Z,99131.40
2022-12-28T15:56:05.855Z,99132.20
2022-12-28T15:58:42.271Z,99129.80
2022-12-28T16:01:18.621Z,99130.20
2022-12-28T16:03:58.170Z,99124.00
2022-12-28T16:06:43.645Z,99124.80
2022-12-28T16:09:21.125Z,99120.00
2022-12-28T16:11:57.473Z,99119.40
2022-12-28T16:14:34.159Z,99123.00
2022-12-28T16:17:10.726Z,99117.20
2022-12-28T16:19:47.203Z,99116.60
2022-12-28T16:22:24.414Z,99114.80
2022-12-28T16:25:00.953Z,99112.60
2022-12-28T16:27:37.630Z,99109.40
2022-12-28T16:30:16.973Z,99105.20
2022-12-28T16:32:54.142Z,99107.20
2022-12-28T16:35:32.453Z,99106.60
2022-12-28T16:38:08.850Z,99109.80
2022-12-28T16:40:45.593Z,99102.20
2022-12-28T16:43:23.828Z,99092.00
2022-12-28T16:46:06.411Z,99091.40
2022-12-28T16:48:43.445Z,99090.80
2022-12-28T16:51:20.000Z,99086.80
2022-12-28T16:53:56.327Z,99086.60
2022-12-28T16:56:32.819Z,99081.80
2022-12-28T16:59:09.160Z,99081.80
2022-12-28T17:01:46.488Z,99083.20
2022-12-28T17:04:23.803Z,99077.60
2022-12-28T17:07:00.613Z,99074.00
2022-12-28T17:09:37.856Z,99070.80
2022-12-28T17:12:14.370Z,99068.60
2022-12-28T17:14:50.942Z,99065.80
2022-12-28T17:17:27.473Z,99071.00
2022-12-28T17:20:06.328Z,99070.20
2022-12-28T17:22:43.104Z,99072.40
2022-12-28T17:25:20.044Z,99075.60
2022-12-28T17:27:56.661Z,99070.80
2022-12-28T17:30:33.362Z,99069.80
2022-12-28T17:33:11.849Z,99073.80
2022-12-28T17:35:48.425Z,99083.00
2022-12-28T17:38:24.715Z,99076.80
2022-12-28T17:41:01.457Z,99068.40
2022-12-28T17:43:38.169Z,99067.60
2022-12-28T17:46:14.753Z,99063.20
2022-12-28T17:48:52.731Z,99059.80
2022-12-28T17:51:30.032Z,99058.00
2022-12-28T17:54:09.467Z,99057.40
2022-12-28T17:56:47.654Z,99054.80
2022-12-28T17:59:24.121Z,99051.80
2022-12-28T18:02:02.050Z,99053.80
2022-12-28T18:04:38.871Z,99055.80
2022-12-28T18:07:15.353Z,99057.40
2022-12-28T18:09:51.814Z,99057.60
2022-12-28T18:12:28.385Z,99058.40
2022-12-28T18:15:05.002Z,99046.00
2022-12-28T18:17:41.310Z,99047.00
2022-12-28T18:20:18.155Z,99049.80
2022-12-28T18:22:54.427Z,99040.80
2022-12-28T18:25:31.446Z,99038.80
2022-12-28T18:28:08.427Z,99041.60
2022-12-28T18:30:47.427Z,99036.20
2022-12-28T18:33:24.327Z,99038.60
2022-12-28T18:36:02.740Z,99039.80
2022-12-28T18:38:43.710Z,99044.20
2022-12-28T18:41:22.543Z,99034.60
2022-12-28T18:44:01.353Z,99037.60
2022-12-28T18:46:37.859Z,99042.20
2022-12-28T18:49:14.780Z,99039.00
2022-12-28T18:51:52.052Z,99039.20
2022-12-28T18:54:32.270Z,99038.80
2022-12-28T18:57:11.476Z,99043.00
2022-12-28T18:59:49.174Z,99050.40
2022-12-28T19:02:26.173Z,99049.00
2022-12-28T19:05:11.381Z,99045.80
2022-12-28T19:07:50.632Z,99041.20
2022-12-28T19:10:51.843Z,99033.80
2022-12-28T19:18:52.563Z,99033.40
2022-12-28T19:22:04.774Z,99034.60
2022-12-28T19:28:58.157Z,99035.20
2022-12-28T19:31:54.275Z,99035.40
2022-12-28T19:34:35.601Z,99036.80
2022-12-28T19:37:26.051Z,99036.80
2022-12-28T19:40:06.601Z,99032.80
2022-12-28T19:43:04.925Z,99034.20
2022-12-28T19:46:06.241Z,99029.20
2022-12-28T19:49:11.844Z,99022.00
2022-12-28T19:51:50.857Z,99016.00
2022-12-28T19:54:27.918Z,99019.40
2022-12-28T19:57:04.673Z,99013.60
2022-12-28T19:59:41.236Z,99015.40
2022-12-28T20:02:42.166Z,99010.40
2022-12-28T20:05:53.218Z,99003.80
2022-12-28T20:08:33.193Z,99000.00
2022-12-28T20:11:10.354Z,98996.00
2022-12-28T20:13:50.872Z,98999.00
2022-12-28T20:16:33.839Z,99003.20
2022-12-28T20:19:19.510Z,99002.00
2022-12-28T20:22:00.381Z,98997.20
2022-12-28T20:24:38.298Z,99002.40
2022-12-28T20:27:19.475Z,98997.60
2022-12-28T20:30:15.052Z,98997.00
2022-12-28T20:32:51.474Z,98994.00
2022-12-28T20:35:58.561Z,98992.40
2022-12-28T20:38:42.696Z,98997.60
2022-12-28T20:41:40.153Z,98990.00
2022-12-28T20:44:25.475Z,98987.60
2022-12-28T20:47:03.177Z,98988.60
2022-12-28T20:49:39.811Z,98987.80
2022-12-28T20:52:16.510Z,98991.80
2022-12-28T20:54:53.683Z,98992.00
2022-12-28T20:57:30.031Z,98984.40
2022-12-28T21:00:08.604Z,98985.00
2022-12-28T21:02:45.621Z,98980.40
2022-12-28T21:05:22.486Z,98978.20
2022-12-28T21:08:00.150Z,98974.20
2022-12-28T21:10:37.945Z,98971.00
2022-12-28T21:13:14.779Z,98971.20
2022-12-28T21:15:51.509Z,98968.40
2022-12-28T21:18:28.224Z,98973.60
2022-12-28T21:21:05.137Z,98972.00
2022-12-28T21:23:41.691Z,98967.80
2022-12-28T21:26:21.194Z,98968.60
2022-12-28T21:28:58.482Z,98969.00
2022-12-28T21:31:34.920Z,98963.80
2022-12-28T21:34:11.416Z,98954.20
2022-12-28T21:36:47.920Z,98956.40
2022-12-28T21:39:25.312Z,98959.00
2022-12-28T21:42:01.713Z,98954.80
2022-12-28T21:44:38.882Z,98953.40
2022-12-28T21:47:15.261Z,98952.20
2022-12-28T21:49:51.829Z,98948.40
2022-12-28T21:52:30.667Z,98950.20
2022-12-28T21:55:21.885Z,98941.60
2022-12-28T21:57:59.736Z,98942.20
2022-12-28T22:00:54.283Z,98940.00
2022-12-28T22:03:48.837Z,98929.80
2022-12-28T22:06:25.277Z,98923.60
2022-12-28T22:09:19.249Z,98916.00
2022-12-28T22:12:13.183Z,98910.80
2022-12-28T22:14:49.904Z,98909.80
2022-12-28T22:17:26.451Z,98907.80
2022-12-28T22:20:02.769Z,98904.60
2022-12-28T22:22:39.600Z,98904.60
2022-12-28T22:25:17.773Z,98902.80
2022-12-28T22:27:54.914Z,98891.20
2022-12-28T22:30:32.269Z,98886.80
2022-12-28T22:33:09.181Z,98894.20
2022-12-28T22:35:45.487Z,98888.80
2022-12-28T22:38:21.789Z,98892.40
2022-12-28T22:41:04.146Z,98894.80
2022-12-28T22:43:41.604Z,98890.40
2022-12-28T22:46:18.114Z,98885.00
2022-12-28T22:48:55.480Z,98885.40
2022-12-28T22:51:31.832Z,98879.80
2022-12-28T22:54:08.405Z,98875.40
2022-12-28T22:56:44.744Z,98872.60
2022-12-28T22:59:21.043Z,98872.20
2022-12-28T23:01:58.396Z,98868.60
2022-12-28T23:04:35.117Z,98867.80
2022-12-28T23:07:11.376Z,98870.20
2022-12-28T23:09:47.765Z,98869.00
2022-12-28T23:12:24.091Z,98865.00
2022-12-28T23:15:20.113Z,98874.40
2022-12-28T23:18:20.457Z,98863.60
2022-12-28T23:21:14.624Z,98871.80
2022-12-28T23:24:08.480Z,98874.00
2022-12-28T23:27:02.639Z,98867.40
2022-12-28T23:29:38.939Z,98867.20
2022-12-28T23:32:15.658Z,98868.80
2022-12-28T23:34:53.261Z,98861.60
2022-12-28T23:37:29.758Z,98861.60
2022-12-28T23:40:06.978Z,98855.80
2022-12-28T23:42:44.990Z,98857.40
2022-12-28T23:45:23.316Z,98856.20
2022-12-28T23:47:59.826Z,98855.20
2022-12-28T23:50:36.441Z,98852.20
2022-12-28T23:53:13.002Z,98856.00
2022-12-28T23:55:49.275Z,98854.60
2022-12-28T23:58:25.714Z,98850.00
